Record high temperature 38.5°C Record low temperature -6.1°C Record high gust 94.9 km/h Record high average 70.9 km/h Record daily rain 58.2 mm Record low windchill -9.9°C Record high barometer 1045.9 hPa Record low barometer 985.2 hPa
Daily high pressure 1026.2 hPa Daily low pressure 1024.5 hPa Daily low windchill 0.9°C Daily high heat index 7.2°C Daily high gust speed 6.4 kmh NW Daily high average speed 6.0 kmh NW
Stazione meteo Crema centro
ULTIMO RILEVAMENTO ALLE ORE: 11:50 GIORNO: 25 Novembre 2020 prossimo aggiornamento ore: 11:55
Tempo presenteSunny/Dry Temperatura attuale 7.0°C (44.6°F), temperatura apparente 5.1°C, Apparent temp solar 8.9°C
Temperatura massima (da mezzanotte)7.2°C alle ore: 11:43 Temperatura minima (da mezzanotte)0.9°C alle ore: 07:43
Forza media vento (dieci minuti)2.4 kmh (1.3 kts) Direzione vento (dieci minuti)WNW (292°)
Temperatura vento 6.1°C Massima forza (ultima ora)6.4 kmh (3.5 kts) alle ore: 10:52
Massima forza (da mezzanotte)6.4 kmh (3.5 kts) alle ore: 10:26 Massimo vento 1 minuto (da mezzanotte)6.0 kmh (3.2 kts) alle ore: 11:49
Pioggia (ultima ora)0.0 mm Pioggia (da mezzanotte)0.0 mm (0.00 in.)---
Pioggia Questo mese 20.6 mm (0.81 in.) Pioggia Questo anno 652.0 mm (25.67 in.)
Massima pioggia per minuto (ultima ora)0.0 mm/min Massima pioggia per ora (ultime 6 ore)0.0 mm/ore
Pioggia di ieri 0.0 mm DewPoint 3.6°C (Wet Bulb :5.6°C )
Umidita 79 %, Humidex 5.8°C Pressione S.L.M.1025.0 hPa (QNH 1025.0 hPa
Variazione pressione -0.7 hPa (ultima ora) Tendenza (ultime 1 ore)Stazionaria
Variazione pressione (ultime 12 ore)-1.2 hPa Variazione pressione (ultime 6 ore)+0.2 hPa
Current Solar 341 W/mē
Maximum solar (da mezzanotte) 353 W/mē Minimum solar (da mezzanotte)0 W/mē
Current 03:13 hours of sunshine today, current sky: Sunny
Sunshine hours for the year: 1752:33 hrs Sunshine hours for the month: 60:29 hrs
Current evapotranspiration rate 0.4 mm per day. Yesterday's reading 0.6

Questa pagina e` aggiornata con i dati della stazione meteo DAVIS VP Premere Reload o Refresh per facilitare la lettura dei dati aggiornati.

Status report of weather station: IK2CHZ - Crema meteo



Weather report/warning/Metars

Milano / Linate, Italy (LIML) 45-26N 009-17E 103M
Nov 25, 2020 - 05:20 AM EST / 2020.11.25 1020 UTC
Wind: from the S (190 degrees) at 3 MPH (3 KT) (direction variable):0
Visibility: 3 mile(s):0
Weather: mist
Temperature: 46 F (8 C)
Dew Point: 37 F (3 C)
Relative Humidity: 70%
Pressure (altimeter): 30.27 in. Hg (1025 hPa)
ob: LIML 251020Z 19003KT 160V220 5000 BR NSC 08/03 Q1025 NOSIG
cycle: 10
Bergamo / Orio Al Serio, Italy (LIME) 45-40N 009-42E 237M
Nov 25, 2020 - 05:20 AM EST / 2020.11.25 1020 UTC
Wind: Variable at 2 MPH (2 KT):0
Visibility: greater than 7 mile(s):0
Temperature: 48 F (9 C)
Dew Point: 33 F (1 C)
Relative Humidity: 57%
Pressure (altimeter): 30.24 in. Hg (1024 hPa)
ob: LIME 251020Z VRB02KT CAVOK 09/01 Q1024 NOSIG
cycle: 10
Piacenza, Italy (LIMS) 44-55N 009-44E 138M
Nov 25, 2020 - 04:55 AM EST / 2020.11.25 0955 UTC
Wind: from the N (360 degrees) at 2 MPH (2 KT):0
Visibility: 1 mile(s):0
Weather: mist
Temperature: 42 F (6 C)
Dew Point: 39 F (4 C)
Relative Humidity: 86%
Pressure (altimeter): 30.24 in. Hg (1024 hPa)
ob: LIMS 250955Z 36002KT 3000 BR NSC 06/04 Q1024 RMK FEW FEW100 VIS MIN 3000 WIND THR30 35002KT YLO
cycle: 10